Time;durP1;ratioP1;P1;durP2;ratioP2;P2;SDS_P1;SDS_P2;PMS_P1;PMS_P2;Temp;Humidity;BMP_temperature;BMP_pressure;BME280_temperature;BME280_humidity;BME280_pressure;Samples;Min_cycle;Max_cycle;Signal;HPM_P1;HPM_P2
2023/05/11 00:00:12;;;;;;;133.32;124.07;;;;;;;;;;5108774;28;20448;-58
2023/05/11 00:02:37;;;;;;;120.72;112.93;;;;;;;;;;5109526;28;20028;-58
2023/05/11 00:05:02;;;;;;;154.45;143.68;;;;;;;;;;5112681;28;20035;-56
2023/05/11 00:07:28;;;;;;;169.23;156.65;;;;;;;;;;5112902;28;20024;-59
2023/05/11 00:09:53;;;;;;;181.35;167.23;;;;;;;;;;5112886;28;20076;-58
2023/05/11 00:12:18;;;;;;;165.43;152.98;;;;;;;;;;5112422;28;20668;-58
2023/05/11 00:14:44;;;;;;;271.52;226.00;;;;;;;;;;5112549;28;20040;-58
2023/05/11 00:17:10;;;;;;;506.08;246.13;;;;;;;;;;5112445;28;20448;-56
2023/05/11 00:19:36;;;;;;;707.60;222.75;;;;;;;;;;5111158;27;20024;-59
2023/05/11 00:22:01;;;;;;;82.32;71.03;;;;;;;;;;5112431;28;20016;-59
2023/05/11 00:24:26;;;;;;;520.97;197.40;;;;;;;;;;5112517;28;20023;-55
2023/05/11 00:26:51;;;;;;;697.55;202.93;;;;;;;;;;5112359;28;20051;-59
2023/05/11 00:29:17;;;;;;;697.67;200.18;;;;;;;;;;5112286;28;20460;-58
2023/05/11 00:31:46;;;;;;;705.05;206.80;;;;;;;;;;5112184;28;20062;-58
2023/05/11 00:34:12;;;;;;;708.20;200.35;;;;;;;;;;5112146;28;20342;-58
2023/05/11 00:36:38;;;;;;;709.10;206.85;;;;;;;;;;5112446;28;20026;-59
2023/05/11 00:39:03;;;;;;;710.20;205.77;;;;;;;;;;5112175;28;20016;-59
2023/05/11 00:41:29;;;;;;;705.90;206.13;;;;;;;;;;5112008;28;20510;-58
2023/05/11 00:43:54;;;;;;;518.78;211.57;;;;;;;;;;5112049;28;20038;-56
2023/05/11 00:46:19;;;;;;;347.27;179.35;;;;;;;;;;5111969;27;20480;-58
2023/05/11 00:48:45;;;;;;;714.70;205.23;;;;;;;;;;5111824;28;20076;-58
2023/05/11 00:51:11;;;;;;;696.67;192.07;;;;;;;;;;5111767;28;20016;-56
2023/05/11 00:53:36;;;;;;;619.45;198.48;;;;;;;;;;5111702;28;20032;-58
2023/05/11 00:56:02;;;;;;;109.10;101.28;;;;;;;;;;5111403;28;20023;-59
2023/05/11 00:58:28;;;;;;;90.20;84.47;;;;;;;;;;5111632;28;20059;-57
2023/05/11 01:00:54;;;;;;;72.35;67.43;;;;;;;;;;5111608;28;20050;-60
2023/05/11 01:03:19;;;;;;;62.75;58.20;;;;;;;;;;5111511;28;20063;-59
2023/05/11 01:05:51;;;;;;;44.55;41.42;;;;;;;;;;5111174;28;20059;-59
2023/05/11 01:08:18;;;;;;;54.15;50.13;;;;;;;;;;5110176;28;20051;-58
2023/05/11 01:10:47;;;;;;;53.35;49.50;;;;;;;;;;5111618;27;20103;-58
2023/05/11 01:13:33;;;;;;;49.28;45.88;;;;;;;;;;5111232;27;20410;-59
2023/05/11 01:16:00;;;;;;;57.53;53.55;;;;;;;;;;5110775;28;20150;-59
2023/05/11 01:18:26;;;;;;;89.13;82.90;;;;;;;;;;5111134;28;20479;-56
2023/05/11 01:20:54;;;;;;;96.75;90.03;;;;;;;;;;5111419;28;20032;-59
2023/05/11 01:23:22;;;;;;;90.15;83.95;;;;;;;;;;5110915;28;20076;-59
2023/05/11 01:25:56;;;;;;;92.30;86.25;;;;;;;;;;5110988;28;20039;-57
2023/05/11 01:28:28;;;;;;;108.65;100.57;;;;;;;;;;5111116;28;20028;-59
2023/05/11 01:30:54;;;;;;;106.50;98.07;;;;;;;;;;5110684;28;20401;-58
2023/05/11 01:33:23;;;;;;;101.22;93.90;;;;;;;;;;5110690;28;20048;-59
2023/05/11 01:35:51;;;;;;;137.88;126.25;;;;;;;;;;5110726;27;20027;-56
2023/05/11 01:38:18;;;;;;;93.47;86.78;;;;;;;;;;5110847;28;20094;-55
2023/05/11 01:40:43;;;;;;;108.20;99.80;;;;;;;;;;5110939;28;20106;-58
2023/05/11 01:43:12;;;;;;;162.98;146.00;;;;;;;;;;5110736;28;20098;-56
2023/05/11 01:45:39;;;;;;;148.93;134.15;;;;;;;;;;5110035;28;20027;-56
2023/05/11 01:48:06;;;;;;;314.20;170.07;;;;;;;;;;5110314;28;20077;-58
2023/05/11 01:50:32;;;;;;;692.63;175.55;;;;;;;;;;5124310;27;20039;-58
2023/05/11 01:52:57;;;;;;;688.05;172.77;;;;;;;;;;5110545;28;20016;-58
2023/05/11 01:55:24;;;;;;;680.78;169.45;;;;;;;;;;5110258;28;20052;-58
2023/05/11 01:57:51;;;;;;;678.42;165.43;;;;;;;;;;5110425;28;20027;-56
2023/05/11 02:00:17;;;;;;;667.55;167.40;;;;;;;;;;5109984;28;20019;-57
2023/05/11 02:02:44;;;;;;;651.30;147.85;;;;;;;;;;5109758;28;20023;-58
2023/05/11 02:05:10;;;;;;;625.65;150.60;;;;;;;;;;5110247;28;20415;-57
2023/05/11 02:07:37;;;;;;;13.77;5.28;;;;;;;;;;5109526;28;20039;-58
2023/05/11 02:10:02;;;;;;;8.02;4.22;;;;;;;;;;5110296;28;20034;-58
2023/05/11 02:12:28;;;;;;;5.95;3.88;;;;;;;;;;5109747;28;20032;-57
2023/05/11 02:14:54;;;;;;;11.07;5.07;;;;;;;;;;5110266;28;20088;-58
2023/05/11 02:17:21;;;;;;;7.85;4.25;;;;;;;;;;5110291;28;20024;-57
2023/05/11 02:19:46;;;;;;;8.20;4.40;;;;;;;;;;5124649;27;20726;-59
2023/05/11 02:22:12;;;;;;;7.28;4.00;;;;;;;;;;5110017;28;20107;-58
2023/05/11 02:24:37;;;;;;;8.10;4.63;;;;;;;;;;5109709;28;20024;-59
2023/05/11 02:27:03;;;;;;;11.20;4.50;;;;;;;;;;5109974;28;20055;-58
2023/05/11 02:29:28;;;;;;;7.72;4.47;;;;;;;;;;5109843;28;20452;-58
2023/05/11 02:32:06;;;;;;;7.88;4.68;;;;;;;;;;5109521;28;20028;-57
2023/05/11 02:34:37;;;;;;;6.18;4.40;;;;;;;;;;5109542;28;20509;-54
2023/05/11 02:37:05;;;;;;;8.60;5.22;;;;;;;;;;5109905;28;20016;-59
2023/05/11 02:39:33;;;;;;;7.47;4.65;;;;;;;;;;5109690;28;20512;-58
2023/05/11 02:42:00;;;;;;;8.80;4.40;;;;;;;;;;5109585;28;20464;-58
2023/05/11 02:44:27;;;;;;;9.10;5.45;;;;;;;;;;5109433;28;20468;-58
2023/05/11 02:46:54;;;;;;;7.78;4.47;;;;;;;;;;5109699;28;20016;-57
2023/05/11 02:49:21;;;;;;;8.50;5.07;;;;;;;;;;5109228;28;20032;-58
2023/05/11 02:51:47;;;;;;;8.85;5.30;;;;;;;;;;5124247;27;20101;-59
2023/05/11 02:54:13;;;;;;;10.50;5.40;;;;;;;;;;5109231;28;20036;-57
2023/05/11 02:56:40;;;;;;;8.10;5.20;;;;;;;;;;5108351;28;20019;-58
2023/05/11 02:59:05;;;;;;;10.65;5.10;;;;;;;;;;5109197;28;20026;-58
2023/05/11 03:01:30;;;;;;;14.48;6.57;;;;;;;;;;5108973;28;20023;-58
2023/05/11 03:03:56;;;;;;;9.63;6.13;;;;;;;;;;5109283;28;20039;-58
2023/05/11 03:06:21;;;;;;;16.35;5.13;;;;;;;;;;5108826;28;20047;-58
2023/05/11 03:08:46;;;;;;;10.10;5.07;;;;;;;;;;5108035;28;20031;-58
2023/05/11 03:11:13;;;;;;;8.77;5.13;;;;;;;;;;5109328;28;20661;-59
2023/05/11 03:13:39;;;;;;;7.78;4.80;;;;;;;;;;5108381;28;20024;-58
2023/05/11 03:16:04;;;;;;;9.85;5.25;;;;;;;;;;5107967;28;20552;-59
2023/05/11 03:18:30;;;;;;;7.60;3.95;;;;;;;;;;5108499;28;20020;-58
2023/05/11 03:20:56;;;;;;;8.57;5.18;;;;;;;;;;5108249;28;20049;-58
2023/05/11 03:23:22;;;;;;;8.98;5.63;;;;;;;;;;5108335;28;20034;-57
2023/05/11 03:25:47;;;;;;;11.80;5.47;;;;;;;;;;5108184;28;20473;-59
2023/05/11 03:28:13;;;;;;;8.18;4.80;;;;;;;;;;5108521;28;20023;-59
2023/05/11 03:30:39;;;;;;;12.02;5.60;;;;;;;;;;5109632;28;20024;-56
2023/05/11 03:33:04;;;;;;;11.18;5.45;;;;;;;;;;5109507;28;20026;-59
2023/05/11 03:35:32;;;;;;;13.73;5.68;;;;;;;;;;5109233;27;20035;-57
2023/05/11 03:37:58;;;;;;;9.02;5.35;;;;;;;;;;5112381;28;20024;-59
2023/05/11 03:40:23;;;;;;;7.30;4.38;;;;;;;;;;5112885;28;20096;-59
2023/05/11 03:42:50;;;;;;;12.82;4.90;;;;;;;;;;5112724;28;20031;-56
2023/05/11 03:45:17;;;;;;;9.57;5.50;;;;;;;;;;5112410;28;20031;-57
2023/05/11 03:47:43;;;;;;;11.43;4.85;;;;;;;;;;5112648;28;20093;-56
2023/05/11 03:50:09;;;;;;;9.45;5.25;;;;;;;;;;5112637;28;20027;-59
2023/05/11 03:52:35;;;;;;;8.20;4.72;;;;;;;;;;5112563;28;20019;-58
2023/05/11 03:55:01;;;;;;;17.67;5.90;;;;;;;;;;5112481;28;20088;-58
2023/05/11 03:57:27;;;;;;;8.20;4.10;;;;;;;;;;5112242;28;20486;-60
2023/05/11 03:59:52;;;;;;;12.00;5.82;;;;;;;;;;5113744;28;20019;-58
2023/05/11 04:02:18;;;;;;;10.90;5.50;;;;;;;;;;5113004;28;20115;-58
2023/05/11 04:04:43;;;;;;;10.25;5.95;;;;;;;;;;5112981;28;20087;-59
2023/05/11 04:07:08;;;;;;;10.82;4.47;;;;;;;;;;5112431;28;20020;-59
2023/05/11 04:09:34;;;;;;;8.23;5.20;;;;;;;;;;5112659;28;20023;-56
2023/05/11 04:11:59;;;;;;;10.73;5.00;;;;;;;;;;5112614;28;20028;-60
2023/05/11 04:14:24;;;;;;;6.93;4.25;;;;;;;;;;5112453;28;20031;-57
2023/05/11 04:16:50;;;;;;;11.32;5.47;;;;;;;;;;5112443;28;20025;-59
2023/05/11 04:19:15;;;;;;;15.02;5.20;;;;;;;;;;5112358;28;20031;-59
2023/05/11 04:21:40;;;;;;;9.73;5.00;;;;;;;;;;5112567;28;20456;-56
2023/05/11 04:24:06;;;;;;;13.43;6.93;;;;;;;;;;5112349;28;20106;-60
2023/05/11 04:26:31;;;;;;;14.63;8.70;;;;;;;;;;5112094;28;20024;-59
2023/05/11 04:28:56;;;;;;;9.40;6.35;;;;;;;;;;5112038;28;20031;-57
2023/05/11 04:31:22;;;;;;;22.02;5.00;;;;;;;;;;5112116;28;20369;-59
2023/05/11 04:33:47;;;;;;;13.82;4.47;;;;;;;;;;5112182;28;20439;-59
2023/05/11 04:36:12;;;;;;;7.00;4.10;;;;;;;;;;5112181;28;20023;-59
2023/05/11 04:38:37;;;;;;;11.38;7.10;;;;;;;;;;5112784;28;20240;-57
2023/05/11 04:41:07;;;;;;;12.70;6.82;;;;;;;;;;5112684;28;20016;-59
2023/05/11 04:43:32;;;;;;;;;;;;;;;;;;5113662;28;20016;-59
2023/05/11 04:45:58;;;;;;;6.22;4.78;;;;;;;;;;5112746;28;20260;-60
2023/05/11 04:48:23;;;;;;;9.43;3.97;;;;;;;;;;5112312;28;20022;-60
2023/05/11 04:50:49;;;;;;;12.63;10.10;;;;;;;;;;5112915;28;20031;-57
2023/05/11 04:53:14;;;;;;;7.32;4.60;;;;;;;;;;5112806;27;20015;-60
2023/05/11 04:55:39;;;;;;;9.50;3.75;;;;;;;;;;5112518;28;20035;-60
2023/05/11 04:58:05;;;;;;;15.50;4.07;;;;;;;;;;5112341;27;20496;-57
2023/05/11 05:00:30;;;;;;;9.20;3.53;;;;;;;;;;5113974;27;20028;-59
2023/05/11 05:02:55;;;;;;;13.07;3.80;;;;;;;;;;5111741;28;20114;-57
2023/05/11 05:05:21;;;;;;;8.73;3.65;;;;;;;;;;5112802;28;20085;-58
2023/05/11 05:07:46;;;;;;;11.63;4.13;;;;;;;;;;5112041;28;20073;-59
2023/05/11 05:10:11;;;;;;;12.82;3.95;;;;;;;;;;5112114;28;20511;-56
2023/05/11 05:12:37;;;;;;;13.23;4.00;;;;;;;;;;5110999;28;20459;-59
2023/05/11 05:15:03;;;;;;;6.63;3.85;;;;;;;;;;5110734;28;20031;-57
2023/05/11 05:17:28;;;;;;;7.03;3.97;;;;;;;;;;5075235;28;20127;-60
2023/05/11 05:19:53;;;;;;;11.15;3.88;;;;;;;;;;5112116;28;20026;-58
2023/05/11 05:22:19;;;;;;;12.85;4.32;;;;;;;;;;5112234;28;20388;-59
2023/05/11 05:24:44;;;;;;;9.07;4.22;;;;;;;;;;5110954;28;20028;-59
2023/05/11 05:27:09;;;;;;;12.15;4.53;;;;;;;;;;5110764;28;20016;-58
2023/05/11 05:29:35;;;;;;;10.13;4.18;;;;;;;;;;5110739;27;20119;-57
2023/05/11 05:32:00;;;;;;;21.70;5.30;;;;;;;;;;5111134;27;20080;-59
2023/05/11 05:34:25;;;;;;;14.43;4.10;;;;;;;;;;5110790;28;20022;-59
2023/05/11 05:36:50;;;;;;;17.08;5.22;;;;;;;;;;5110195;28;20305;-59
2023/05/11 05:39:16;;;;;;;13.43;4.32;;;;;;;;;;5109792;28;20024;-58
2023/05/11 05:41:42;;;;;;;58.50;54.60;;;;;;;;;;5110027;28;20024;-59
2023/05/11 05:44:07;;;;;;;14.15;4.03;;;;;;;;;;5109799;28;20035;-59
2023/05/11 05:46:32;;;;;;;13.43;12.30;;;;;;;;;;5109519;28;20360;-60
2023/05/11 05:48:58;;;;;;;117.03;105.38;;;;;;;;;;5109647;28;20032;-57
2023/05/11 05:51:23;;;;;;;16.25;4.88;;;;;;;;;;5109547;28;20019;-61
2023/05/11 05:53:48;;;;;;;15.18;4.85;;;;;;;;;;5108599;28;20035;-58
2023/05/11 05:56:14;;;;;;;6.55;3.63;;;;;;;;;;5111203;28;20020;-60
2023/05/11 05:58:40;;;;;;;8.75;3.72;;;;;;;;;;5109503;28;20410;-62
2023/05/11 06:01:05;;;;;;;11.48;3.58;;;;;;;;;;5110229;28;20035;-58
2023/05/11 06:03:30;;;;;;;6.30;2.80;;;;;;;;;;5109938;28;20020;-58
2023/05/11 06:05:56;;;;;;;7.60;3.40;;;;;;;;;;5109671;28;20051;-60
2023/05/11 06:08:21;;;;;;;12.90;3.63;;;;;;;;;;5110107;28;20247;-60
2023/05/11 06:10:47;;;;;;;7.65;3.47;;;;;;;;;;5110016;28;20034;-62
2023/05/11 06:13:12;;;;;;;111.18;104.50;;;;;;;;;;5106281;28;20592;-60
2023/05/11 06:15:37;;;;;;;202.43;185.70;;;;;;;;;;5108566;28;20032;-62
2023/05/11 06:18:02;;;;;;;8.07;3.00;;;;;;;;;;5109437;28;20020;-61
2023/05/11 06:20:30;;;;;;;9.82;3.03;;;;;;;;;;5109672;28;20020;-61
2023/05/11 06:22:55;;;;;;;5.85;2.88;;;;;;;;;;5109250;28;20431;-62
2023/05/11 06:25:20;;;;;;;6.63;2.42;;;;;;;;;;5109337;28;20070;-58
2023/05/11 06:27:46;;;;;;;8.10;2.67;;;;;;;;;;5109251;27;20023;-56
2023/05/11 06:30:11;;;;;;;3.75;2.33;;;;;;;;;;5109084;27;20112;-62
2023/05/11 06:32:36;;;;;;;5.97;2.40;;;;;;;;;;5089749;28;20067;-63
2023/05/11 06:35:02;;;;;;;15.18;3.85;;;;;;;;;;5098320;28;20116;-61
2023/05/11 06:37:30;;;;;;;14.55;3.78;;;;;;;;;;5097282;28;20031;-60
2023/05/11 06:39:57;;;;;;;5.65;2.42;;;;;;;;;;5106447;28;20392;-61
2023/05/11 06:42:22;;;;;;;10.82;3.17;;;;;;;;;;5104031;28;20027;-57
2023/05/11 06:44:47;;;;;;;12.30;3.67;;;;;;;;;;5088450;28;20032;-61
2023/05/11 06:47:13;;;;;;;11.38;3.55;;;;;;;;;;5090048;28;20671;-58
2023/05/11 06:49:38;;;;;;;11.07;3.05;;;;;;;;;;5107834;28;20035;-57
2023/05/11 06:52:03;;;;;;;13.93;3.17;;;;;;;;;;5130872;27;20455;-56
2023/05/11 06:54:28;;;;;;;15.10;3.55;;;;;;;;;;5101490;27;20284;-56
2023/05/11 06:56:54;;;;;;;13.60;3.45;;;;;;;;;;5089453;28;20100;-55
2023/05/11 07:00:06;;;;;;;9.70;4.18;;;;;;;;;;5052734;28;20143;-56
2023/05/11 07:02:31;;;;;;;10.52;3.95;;;;;;;;;;5061079;28;20036;-58
2023/05/11 07:04:57;;;;;;;11.73;4.30;;;;;;;;;;5043687;28;20036;-57
2023/05/11 07:07:22;;;;;;;39.00;4.28;;;;;;;;;;5045884;28;20035;-59
2023/05/11 07:09:48;;;;;;;12.23;3.30;;;;;;;;;;5054364;28;20021;-63
2023/05/11 07:12:13;;;;;;;16.58;3.20;;;;;;;;;;5053626;28;20349;-60
2023/05/11 07:14:38;;;;;;;12.77;3.30;;;;;;;;;;5027161;28;20037;-54
2023/05/11 07:17:04;;;;;;;10.23;3.33;;;;;;;;;;5050188;28;20312;-54
2023/05/11 07:19:29;;;;;;;11.20;4.65;;;;;;;;;;5042517;28;20102;-64
2023/05/11 07:21:54;;;;;;;20.42;4.88;;;;;;;;;;5044225;28;20067;-58
2023/05/11 07:24:19;;;;;;;6.20;3.45;;;;;;;;;;5048262;28;20515;-58
2023/05/11 07:26:45;;;;;;;36.90;33.57;;;;;;;;;;5047931;28;20013;-59
2023/05/11 07:29:10;;;;;;;37.85;32.65;;;;;;;;;;5051539;28;20258;-58
2023/05/11 07:31:36;;;;;;;21.60;15.73;;;;;;;;;;5048347;28;20104;-53
2023/05/11 07:34:01;;;;;;;9.43;8.48;;;;;;;;;;5043646;28;20258;-56
2023/05/11 07:36:26;;;;;;;23.02;8.30;;;;;;;;;;5050266;28;20087;-60
2023/05/11 07:38:52;;;;;;;21.33;9.55;;;;;;;;;;5048443;28;20029;-61
2023/05/11 07:41:18;;;;;;;8.82;4.63;;;;;;;;;;5050976;28;20488;-61
2023/05/11 07:43:43;;;;;;;5.90;3.78;;;;;;;;;;5047462;28;20544;-61
2023/05/11 07:46:08;;;;;;;13.07;6.28;;;;;;;;;;5042470;28;20022;-54
2023/05/11 07:48:34;;;;;;;7.85;4.20;;;;;;;;;;5041928;28;20384;-58
2023/05/11 07:51:00;;;;;;;8.77;3.83;;;;;;;;;;5057015;28;20035;-60
2023/05/11 07:53:25;;;;;;;11.23;3.85;;;;;;;;;;5061141;28;20423;-54
2023/05/11 07:55:51;;;;;;;9.70;4.50;;;;;;;;;;5048154;28;20017;-57
2023/05/11 07:58:16;;;;;;;6.47;3.37;;;;;;;;;;5048246;28;20147;-56
2023/05/11 08:00:41;;;;;;;11.75;4.25;;;;;;;;;;5065096;28;20316;-57
2023/05/11 08:03:07;;;;;;;11.48;5.28;;;;;;;;;;5071069;28;20028;-58
2023/05/11 08:05:36;;;;;;;15.05;5.35;;;;;;;;;;5073481;28;20028;-60
2023/05/11 08:08:01;;;;;;;;;;;;;;;;;;5071832;28;20074;-57
2023/05/11 08:10:26;;;;;;;5.73;2.93;;;;;;;;;;5020407;28;19988;-56
2023/05/11 08:12:51;;;;;;;15.40;4.63;;;;;;;;;;5057113;28;20074;-55
2023/05/11 08:15:17;;;;;;;9.00;4.00;;;;;;;;;;5052641;28;20020;-53
2023/05/11 08:17:42;;;;;;;13.20;6.30;;;;;;;;;;5046445;28;20088;-55
2023/05/11 08:20:08;;;;;;;16.40;6.53;;;;;;;;;;5049635;28;20029;-54
2023/05/11 08:22:33;;;;;;;16.73;5.32;;;;;;;;;;5051382;28;20265;-54
2023/05/11 08:24:59;;;;;;;13.85;6.15;;;;;;;;;;5050030;28;20029;-55
2023/05/11 08:27:24;;;;;;;14.63;9.77;;;;;;;;;;5066649;28;20028;-55
2023/05/11 08:29:50;;;;;;;12.50;5.87;;;;;;;;;;5054940;28;20029;-51
2023/05/11 08:32:15;;;;;;;15.37;5.50;;;;;;;;;;5050044;28;20285;-57
2023/05/11 08:34:40;;;;;;;6.93;4.72;;;;;;;;;;5043859;28;20262;-54
2023/05/11 08:37:06;;;;;;;16.98;4.75;;;;;;;;;;5053690;28;20412;-55
2023/05/11 08:39:34;;;;;;;13.67;6.50;;;;;;;;;;5054457;28;20025;-57
2023/05/11 08:42:01;;;;;;;12.07;4.97;;;;;;;;;;5053839;28;20258;-54
2023/05/11 08:44:28;;;;;;;18.10;6.38;;;;;;;;;;5051628;28;20561;-57
2023/05/11 08:46:53;;;;;;;20.67;5.72;;;;;;;;;;5044411;28;20031;-53
2023/05/11 08:49:19;;;;;;;100.53;10.75;;;;;;;;;;5048713;28;20016;-53
2023/05/11 08:51:45;;;;;;;6.10;2.92;;;;;;;;;;5048032;28;20025;-54
2023/05/11 08:54:11;;;;;;;6.63;3.78;;;;;;;;;;5048989;28;20032;-58
2023/05/11 08:56:39;;;;;;;10.57;5.28;;;;;;;;;;5051160;28;20021;-53
2023/05/11 08:59:05;;;;;;;13.60;4.95;;;;;;;;;;5048195;28;20131;-55
2023/05/11 09:01:30;;;;;;;20.25;5.38;;;;;;;;;;5045977;28;20067;-56
2023/05/11 09:03:56;;;;;;;14.50;4.78;;;;;;;;;;5055689;28;20490;-56
2023/05/11 09:06:23;;;;;;;10.77;4.47;;;;;;;;;;5067084;28;20031;-56
2023/05/11 09:08:48;;;;;;;10.13;3.35;;;;;;;;;;5047659;28;20464;-57
2023/05/11 09:11:13;;;;;;;7.40;3.20;;;;;;;;;;5046789;28;20147;-52
2023/05/11 09:13:39;;;;;;;16.00;3.72;;;;;;;;;;5047560;28;20029;-56
2023/05/11 09:16:04;;;;;;;11.57;3.45;;;;;;;;;;5054920;28;20032;-57
2023/05/11 09:18:30;;;;;;;13.05;3.25;;;;;;;;;;5067139;28;20392;-55
2023/05/11 09:20:55;;;;;;;12.38;3.83;;;;;;;;;;5066775;28;20043;-55
2023/05/11 09:23:23;;;;;;;9.23;2.95;;;;;;;;;;5065736;28;20039;-57
2023/05/11 09:25:49;;;;;;;27.23;4.43;;;;;;;;;;5067017;28;20530;-54
2023/05/11 09:28:15;;;;;;;11.27;3.42;;;;;;;;;;5067386;28;20039;-56
2023/05/11 09:30:42;;;;;;;12.93;4.10;;;;;;;;;;5058151;28;20020;-57
2023/05/11 09:33:07;;;;;;;4.03;2.55;;;;;;;;;;5050906;28;20049;-57
2023/05/11 09:35:33;;;;;;;8.48;2.03;;;;;;;;;;5047163;28;20114;-58
2023/05/11 09:38:06;;;;;;;7.50;2.10;;;;;;;;;;5061316;28;20031;-55
2023/05/11 09:40:35;;;;;;;13.70;3.35;;;;;;;;;;5066520;28;20021;-58
2023/05/11 09:43:02;;;;;;;7.72;2.28;;;;;;;;;;5066557;28;20022;-51
2023/05/11 09:45:37;;;;;;;5.45;2.03;;;;;;;;;;5066273;28;20032;-57
2023/05/11 09:48:06;;;;;;;4.50;1.83;;;;;;;;;;5064309;28;20028;-54
2023/05/11 09:50:32;;;;;;;4.55;1.92;;;;;;;;;;5066232;28;20032;-57
2023/05/11 09:52:57;;;;;;;10.40;2.42;;;;;;;;;;5066252;28;20036;-55
2023/05/11 09:55:23;;;;;;;5.50;1.80;;;;;;;;;;5066363;28;20419;-55
2023/05/11 09:57:52;;;;;;;7.22;2.67;;;;;;;;;;5064105;28;20507;-59
2023/05/11 10:00:18;;;;;;;4.65;2.33;;;;;;;;;;5048316;28;20475;-59
2023/05/11 10:02:43;;;;;;;12.67;2.50;;;;;;;;;;5065660;28;20027;-56
2023/05/11 10:05:12;;;;;;;6.37;2.60;;;;;;;;;;5065912;28;20246;-59
2023/05/11 10:07:37;;;;;;;4.35;2.35;;;;;;;;;;5056300;28;20472;-58
2023/05/11 10:10:04;;;;;;;6.95;2.38;;;;;;;;;;5046085;28;20124;-54
2023/05/11 10:12:31;;;;;;;2.78;1.70;;;;;;;;;;5045661;28;20013;-59
2023/05/11 10:15:00;;;;;;;2.97;1.63;;;;;;;;;;5045642;28;20498;-55
2023/05/11 10:17:27;;;;;;;5.53;2.63;;;;;;;;;;5045917;28;20444;-58
2023/05/11 10:19:53;;;;;;;4.30;2.17;;;;;;;;;;5054083;28;20055;-55
2023/05/11 10:22:19;;;;;;;3.40;1.85;;;;;;;;;;5063498;28;20028;-55
2023/05/11 10:24:44;;;;;;;2.50;2.05;;;;;;;;;;5061220;28;20078;-59
2023/05/11 10:27:11;;;;;;;2.97;2.03;;;;;;;;;;5065740;28;20020;-57
2023/05/11 10:29:36;;;;;;;15.50;11.52;;;;;;;;;;5065796;28;20086;-58
2023/05/11 10:32:02;;;;;;;58.28;54.25;;;;;;;;;;5027838;28;20434;-59
2023/05/11 10:34:27;;;;;;;42.13;39.53;;;;;;;;;;5065524;28;20021;-59
2023/05/11 10:36:53;;;;;;;30.75;28.42;;;;;;;;;;5065653;28;20016;-58
2023/05/11 10:39:19;;;;;;;26.42;24.23;;;;;;;;;;5065680;28;20435;-56
2023/05/11 10:41:50;;;;;;;20.08;18.13;;;;;;;;;;5056676;28;20025;-58
2023/05/11 10:44:21;;;;;;;11.85;8.32;;;;;;;;;;5045889;28;20028;-55
2023/05/11 10:46:49;;;;;;;24.80;22.48;;;;;;;;;;5045529;28;20039;-58
2023/05/11 10:49:21;;;;;;;13.07;6.37;;;;;;;;;;5045578;28;20079;-59
2023/05/11 10:51:58;;;;;;;11.35;6.35;;;;;;;;;;5047035;28;20395;-59
2023/05/11 10:54:42;;;;;;;18.95;16.48;;;;;;;;;;5051445;28;20673;-54
2023/05/11 10:57:10;;;;;;;4.82;2.17;;;;;;;;;;5049943;28;20622;-59
2023/05/11 10:59:53;;;;;;;4.00;2.08;;;;;;;;;;5046548;28;20140;-60
2023/05/11 11:02:20;;;;;;;6.75;2.28;;;;;;;;;;5046465;28;20033;-59
2023/05/11 11:04:45;;;;;;;2.72;1.77;;;;;;;;;;5045978;28;20021;-57
2023/05/11 11:07:15;;;;;;;6.28;2.03;;;;;;;;;;5051892;28;20025;-58
2023/05/11 11:09:50;;;;;;;9.13;2.53;;;;;;;;;;5063403;28;20029;-58
2023/05/11 11:12:15;;;;;;;18.90;3.20;;;;;;;;;;5050097;28;20172;-60
2023/05/11 11:14:54;;;;;;;4.22;2.10;;;;;;;;;;5046715;28;20049;-56
2023/05/11 11:17:21;;;;;;;14.50;3.90;;;;;;;;;;5045069;28;20016;-57
2023/05/11 11:19:46;;;;;;;19.00;3.47;;;;;;;;;;5044898;28;20086;-59
2023/05/11 11:22:30;;;;;;;17.00;3.57;;;;;;;;;;5045201;28;20021;-58
2023/05/11 11:24:55;;;;;;;8.68;2.55;;;;;;;;;;5018188;28;20262;-58
2023/05/11 11:27:40;;;;;;;8.63;1.93;;;;;;;;;;5065668;28;20045;-53
2023/05/11 11:30:19;;;;;;;7.68;2.17;;;;;;;;;;5051750;28;20262;-56
2023/05/11 11:32:45;;;;;;;7.47;2.78;;;;;;;;;;5047443;28;20029;-59
2023/05/11 11:35:29;;;;;;;7.57;2.65;;;;;;;;;;5003933;28;20044;-58
2023/05/11 11:38:01;;;;;;;7.43;2.85;;;;;;;;;;5046665;28;20044;-64
2023/05/11 11:40:42;;;;;;;9.50;3.33;;;;;;;;;;5054216;28;20464;-55
2023/05/11 11:43:13;;;;;;;7.38;2.72;;;;;;;;;;5052963;28;20017;-56
2023/05/11 11:45:48;;;;;;;3.25;2.28;;;;;;;;;;5063059;28;20371;-56
2023/05/11 11:48:14;;;;;;;4.75;2.45;;;;;;;;;;5060011;28;20082;-57
2023/05/11 11:50:43;;;;;;;6.20;2.28;;;;;;;;;;5049807;28;20036;-58
2023/05/11 11:53:32;;;;;;;9.10;2.60;;;;;;;;;;5055627;28;20016;-55
2023/05/11 11:55:57;;;;;;;4.07;2.58;;;;;;;;;;4961808;28;20045;-59
2023/05/11 11:58:40;;;;;;;9.80;3.00;;;;;;;;;;4962086;28;20050;-59
2023/05/11 12:01:06;;;;;;;12.07;3.25;;;;;;;;;;4960421;28;20028;-54
2023/05/11 12:03:35;;;;;;;5.35;2.85;;;;;;;;;;4969523;28;20037;-59
2023/05/11 12:06:01;;;;;;;10.35;2.63;;;;;;;;;;4961365;28;20111;-60
2023/05/11 12:08:28;;;;;;;5.85;2.55;;;;;;;;;;4963596;28;20050;-58
2023/05/11 12:10:53;;;;;;;6.53;2.85;;;;;;;;;;4950139;28;20035;-59
2023/05/11 12:13:19;;;;;;;6.25;3.28;;;;;;;;;;4961642;28;20035;-58
2023/05/11 12:15:45;;;;;;;8.45;2.67;;;;;;;;;;4958958;28;20018;-58
2023/05/11 12:18:22;;;;;;;5.10;2.85;;;;;;;;;;4966295;28;20042;-61
2023/05/11 12:20:47;;;;;;;9.55;3.33;;;;;;;;;;4962831;28;20680;-57
2023/05/11 12:23:13;;;;;;;11.25;3.20;;;;;;;;;;4965374;28;20321;-60
2023/05/11 12:25:38;;;;;;;10.02;3.65;;;;;;;;;;4962083;28;20082;-60
2023/05/11 12:28:04;;;;;;;14.00;4.20;;;;;;;;;;4961361;28;20027;-54
2023/05/11 12:30:30;;;;;;;9.93;3.37;;;;;;;;;;4963786;28;20490;-58
2023/05/11 12:32:58;;;;;;;11.43;3.05;;;;;;;;;;5012659;28;20265;-55
2023/05/11 12:35:24;;;;;;;43.35;4.80;;;;;;;;;;5066650;28;20024;-57
2023/05/11 12:37:49;;;;;;;9.68;3.80;;;;;;;;;;5052456;28;20104;-55
2023/05/11 12:40:15;;;;;;;8.75;3.67;;;;;;;;;;5053876;28;20043;-55
2023/05/11 12:42:54;;;;;;;10.43;4.07;;;;;;;;;;5062911;28;20418;-58
2023/05/11 12:45:21;;;;;;;12.00;3.38;;;;;;;;;;5047608;28;20087;-57
2023/05/11 12:47:47;;;;;;;15.10;3.53;;;;;;;;;;5050306;28;20039;-56
2023/05/11 12:50:12;;;;;;;20.52;5.05;;;;;;;;;;5004891;28;20052;-60
2023/05/11 12:52:38;;;;;;;9.10;3.00;;;;;;;;;;5047936;28;20017;-55
2023/05/11 12:55:03;;;;;;;9.45;3.67;;;;;;;;;;5046618;28;20477;-56
2023/05/11 12:57:30;;;;;;;14.45;4.10;;;;;;;;;;4997008;28;20071;-59
2023/05/11 13:00:11;;;;;;;9.90;3.70;;;;;;;;;;5048222;28;20140;-58
2023/05/11 13:02:43;;;;;;;11.45;3.65;;;;;;;;;;5049554;28;20139;-62
2023/05/11 13:05:10;;;;;;;9.05;3.05;;;;;;;;;;5050662;28;20369;-52
2023/05/11 13:07:35;;;;;;;12.52;3.50;;;;;;;;;;5061706;28;20787;-62
2023/05/11 13:10:01;;;;;;;11.90;4.18;;;;;;;;;;5056887;28;20037;-56
2023/05/11 13:12:26;;;;;;;10.23;3.75;;;;;;;;;;5052924;28;20035;-59
2023/05/11 13:15:12;;;;;;;8.65;3.53;;;;;;;;;;5048308;28;20181;-53
2023/05/11 13:17:38;;;;;;;14.40;4.13;;;;;;;;;;5047990;28;20020;-55
2023/05/11 13:20:25;;;;;;;11.02;3.55;;;;;;;;;;5049226;28;20025;-57
2023/05/11 13:22:50;;;;;;;8.10;3.45;;;;;;;;;;4961709;28;20035;-59
2023/05/11 13:25:19;;;;;;;5.15;2.53;;;;;;;;;;4959913;28;20035;-53
2023/05/11 13:27:45;;;;;;;12.27;4.40;;;;;;;;;;4953627;28;20046;-56
2023/05/11 13:30:10;;;;;;;8.43;3.30;;;;;;;;;;4947907;28;20038;-58
2023/05/11 13:32:36;;;;;;;14.30;4.03;;;;;;;;;;4965110;28;20125;-54
2023/05/11 13:35:02;;;;;;;14.57;3.67;;;;;;;;;;4918967;28;20027;-60
2023/05/11 13:37:27;;;;;;;7.10;3.30;;;;;;;;;;4944918;28;20090;-58
2023/05/11 13:39:53;;;;;;;12.32;3.47;;;;;;;;;;4962546;28;20051;-56
2023/05/11 13:42:18;;;;;;;14.53;3.67;;;;;;;;;;4960206;28;20031;-56
2023/05/11 13:44:43;;;;;;;13.32;4.82;;;;;;;;;;4958302;28;20287;-57
2023/05/11 13:47:08;;;;;;;8.03;3.30;;;;;;;;;;4963896;28;20078;-52
2023/05/11 13:49:34;;;;;;;5.10;3.22;;;;;;;;;;4955981;28;20268;-53
2023/05/11 13:51:59;;;;;;;11.02;4.45;;;;;;;;;;4962043;28;20019;-57
2023/05/11 13:54:24;;;;;;;8.05;3.90;;;;;;;;;;4945997;28;20137;-59
2023/05/11 13:56:50;;;;;;;9.55;3.20;;;;;;;;;;4964876;28;20037;-55
2023/05/11 13:59:15;;;;;;;11.25;3.92;;;;;;;;;;4958528;28;20049;-56
2023/05/11 14:01:41;;;;;;;7.78;3.72;;;;;;;;;;5054712;28;20017;-53
2023/05/11 14:04:06;;;;;;;15.77;4.63;;;;;;;;;;5050200;28;20075;-54
2023/05/11 14:06:32;;;;;;;11.43;4.25;;;;;;;;;;5025345;28;20029;-57
2023/05/11 14:08:57;;;;;;;10.85;3.60;;;;;;;;;;5025210;28;20569;-58
2023/05/11 14:11:23;;;;;;;18.45;5.03;;;;;;;;;;5052438;28;20023;-58
2023/05/11 14:13:48;;;;;;;8.82;3.22;;;;;;;;;;5054095;28;20019;-60
2023/05/11 14:16:14;;;;;;;10.40;3.83;;;;;;;;;;5052027;28;20025;-57
2023/05/11 14:18:39;;;;;;;10.88;3.75;;;;;;;;;;5008156;28;20119;-61
2023/05/11 14:21:05;;;;;;;11.27;3.20;;;;;;;;;;5051201;28;20384;-57
2023/05/11 14:23:30;;;;;;;9.80;3.13;;;;;;;;;;5047806;28;20020;-57
2023/05/11 14:25:55;;;;;;;7.20;2.78;;;;;;;;;;5050261;28;20031;-61
2023/05/11 14:28:21;;;;;;;15.52;3.83;;;;;;;;;;5043239;28;20105;-57